Time;durP1;ratioP1;P1;durP2;ratioP2;P2;SDS_P1;SDS_P2;PMS_P1;PMS_P2;Temp;Humidity;BMP_temperature;BMP_pressure;BME280_temperature;BME280_humidity;BME280_pressure;Samples;Min_cycle;Max_cycle;Signal;HPM_P1;HPM_P2
2023/04/12 00:01:26;;;;;;;5.78;3.33;;;;;;;7.72;66.80;98606.13;4425804;32;33988;-84
2023/04/12 00:03:54;;;;;;;6.90;3.62;;;;;;;7.76;66.68;98602.75;4434854;32;34011;-83
2023/04/12 00:06:31;;;;;;;7.40;3.40;;;;;;;7.67;66.55;98597.47;4421223;32;33149;-84
2023/04/12 00:09:00;;;;;;;6.97;3.80;;;;;;;7.17;68.48;98594.09;4436791;32;34221;-84
2023/04/12 00:11:27;;;;;;;7.28;3.92;;;;;;;7.17;68.93;98602.69;4426611;32;33620;-84
2023/04/12 00:13:55;;;;;;;6.22;3.78;;;;;;;7.18;68.62;98601.81;4435692;32;33636;-83
2023/04/12 00:16:23;;;;;;;8.23;4.47;;;;;;;7.42;67.87;98600.50;4434673;32;34607;-84
2023/04/12 00:18:50;;;;;;;7.65;3.62;;;;;;;7.25;68.44;98598.50;4435152;32;33525;-84
2023/04/12 00:21:18;;;;;;;7.20;4.15;;;;;;;7.74;66.82;98601.00;4432579;32;33977;-84
2023/04/12 00:23:46;;;;;;;7.30;3.92;;;;;;;8.01;65.68;98606.56;4425615;32;34165;-84
2023/04/12 00:26:14;;;;;;;6.18;4.28;;;;;;;7.74;66.59;98619.94;4421409;32;33842;-83
2023/04/12 00:28:42;;;;;;;7.65;3.87;;;;;;;7.44;67.59;98615.16;4420811;32;33401;-84
2023/04/12 00:31:11;;;;;;;8.48;4.40;;;;;;;7.77;66.85;98616.53;4435170;32;33860;-84
2023/04/12 00:33:38;;;;;;;6.90;4.45;;;;;;;7.47;67.83;98614.34;4434615;32;34041;-83
2023/04/12 00:36:06;;;;;;;7.87;4.60;;;;;;;7.63;66.79;98610.28;4429666;32;33775;-84
2023/04/12 00:38:35;;;;;;;7.25;4.12;;;;;;;7.48;67.75;98603.19;4420326;32;33462;-84
2023/04/12 00:41:03;;;;;;;6.82;4.12;;;;;;;7.50;67.61;98599.78;4417766;32;33501;-84
2023/04/12 00:43:30;;;;;;;7.30;4.62;;;;;;;7.88;65.96;98598.59;4435230;32;35001;-84
2023/04/12 00:45:58;;;;;;;7.95;5.00;;;;;;;7.83;65.99;98584.78;4435344;32;33908;-84
2023/04/12 00:48:26;;;;;;;6.07;4.10;;;;;;;7.54;67.00;98583.53;4420895;32;32603;-84
2023/04/12 00:50:56;;;;;;;8.23;4.40;;;;;;;7.42;67.49;98600.50;4420846;32;33898;-83
2023/04/12 00:53:24;;;;;;;8.35;5.18;;;;;;;7.04;68.89;98587.81;4435157;32;33528;-84
2023/04/12 00:55:53;;;;;;;8.07;4.50;;;;;;;7.20;67.90;98576.97;4434727;32;33660;-83
2023/04/12 00:58:23;;;;;;;10.10;4.62;;;;;;;6.89;69.13;98588.41;4425320;32;34073;-84
2023/04/12 01:00:51;;;;;;;7.97;4.43;;;;;;;6.61;70.16;98591.34;4419672;32;33760;-84
2023/04/12 01:03:23;;;;;;;7.30;4.70;;;;;;;7.04;69.19;98583.53;4436719;32;34300;-84
2023/04/12 01:06:13;;;;;;;7.62;5.40;;;;;;;7.07;68.95;98586.19;4424651;32;34094;-83
2023/04/12 01:09:03;;;;;;;7.47;4.80;;;;;;;7.23;68.18;98582.13;4436972;32;33026;-84
2023/04/12 01:11:32;;;;;;;6.12;4.37;;;;;;;7.14;68.45;98576.84;4422506;32;33635;-84
2023/04/12 01:14:20;;;;;;;6.68;4.65;;;;;;;6.80;69.78;98578.81;4434184;32;33861;-84
2023/04/12 01:16:50;;;;;;;7.93;4.97;;;;;;;7.14;68.60;98582.00;4414873;32;34153;-84
2023/04/12 01:19:30;;;;;;;6.97;5.07;;;;;;;7.00;68.99;98589.47;4434347;32;33718;-83
2023/04/12 01:22:12;;;;;;;8.57;4.53;;;;;;;6.97;69.26;98588.56;4433674;32;33491;-84
2023/04/12 01:24:54;;;;;;;6.90;4.62;;;;;;;7.23;67.92;98597.59;4421770;32;34002;-83
2023/04/12 01:27:44;;;;;;;8.45;4.75;;;;;;;7.18;67.84;98599.25;4407173;32;34691;-83
2023/04/12 01:30:14;;;;;;;7.95;4.70;;;;;;;7.25;67.88;98597.66;4425905;32;34355;-83
2023/04/12 01:32:50;;;;;;;6.82;4.37;;;;;;;7.29;67.46;98605.47;4434113;32;35313;-83
2023/04/12 01:35:20;;;;;;;9.30;4.35;;;;;;;7.24;67.36;98601.94;4421063;32;34132;-84
2023/04/12 01:37:48;;;;;;;8.50;4.62;;;;;;;6.97;68.64;98594.59;4421245;32;33517;-84
2023/04/12 01:40:17;;;;;;;8.55;4.78;;;;;;;6.84;69.10;98584.91;4421934;32;32833;-83
2023/04/12 01:42:45;;;;;;;10.65;5.32;;;;;;;6.72;69.72;98585.56;4449616;32;33484;-84
2023/04/12 01:45:13;;;;;;;9.15;4.78;;;;;;;6.55;70.03;98587.81;4425427;32;34923;-84
2023/04/12 01:47:41;;;;;;;8.45;4.95;;;;;;;6.51;70.32;98585.13;4436707;32;33892;-83
2023/04/12 01:50:17;;;;;;;8.40;4.70;;;;;;;6.71;69.42;98578.66;4419943;32;33490;-83
2023/04/12 01:53:10;;;;;;;7.55;4.60;;;;;;;6.62;69.50;98586.22;4433717;32;34666;-84
2023/04/12 01:55:41;;;;;;;6.93;4.43;;;;;;;6.76;69.25;98587.34;4421698;32;33905;-83
2023/04/12 01:58:10;;;;;;;9.23;4.72;;;;;;;6.49;70.08;98591.97;4433188;32;34103;-83
2023/04/12 02:00:39;;;;;;;6.47;4.43;;;;;;;6.56;70.07;98586.97;4427952;32;34113;-83
2023/04/12 02:03:07;;;;;;;9.27;4.62;;;;;;;6.36;70.60;98582.25;4427360;32;34034;-83
2023/04/12 02:05:35;;;;;;;9.38;4.95;;;;;;;6.51;70.10;98587.72;4441484;32;34803;-84
2023/04/12 02:08:03;;;;;;;8.32;5.40;;;;;;;6.10;71.95;98585.19;4435426;32;34084;-83
2023/04/12 02:10:32;;;;;;;7.97;5.28;;;;;;;6.34;70.69;98574.50;4437176;32;33351;-83
2023/04/12 02:13:00;;;;;;;9.30;5.82;;;;;;;6.32;70.39;98577.03;4433886;32;33466;-84
2023/04/12 02:15:29;;;;;;;6.43;4.45;;;;;;;6.42;70.38;98569.50;4428077;32;33756;-84
2023/04/12 02:17:59;;;;;;;6.93;5.10;;;;;;;6.64;69.39;98581.97;4445481;32;34059;-84
2023/04/12 02:20:28;;;;;;;7.45;4.82;;;;;;;6.80;68.85;98577.97;4435782;32;33401;-84
2023/04/12 02:22:55;;;;;;;7.97;5.30;;;;;;;6.39;70.51;98579.75;4430029;32;34204;-84
2023/04/12 02:25:23;;;;;;;8.05;5.37;;;;;;;6.30;70.00;98577.88;4428053;32;34905;-84
2023/04/12 02:27:50;;;;;;;8.68;5.70;;;;;;;6.61;69.30;98584.47;4423723;32;33953;-84
2023/04/12 02:30:19;;;;;;;9.63;5.78;;;;;;;6.45;69.80;98582.47;4410633;32;32651;-82
2023/04/12 02:32:47;;;;;;;7.50;5.70;;;;;;;6.14;70.79;98592.13;4432239;32;33868;-81
2023/04/12 02:35:16;;;;;;;8.75;5.55;;;;;;;6.63;68.69;98587.97;4408406;32;33003;-82
2023/04/12 02:37:45;;;;;;;9.35;6.07;;;;;;;6.54;69.34;98587.78;4435095;32;34463;-81
2023/04/12 02:40:14;;;;;;;9.98;5.35;;;;;;;6.61;69.19;98588.75;4420334;32;33172;-81
2023/04/12 02:42:43;;;;;;;10.48;6.07;;;;;;;6.80;68.10;98586.56;4436441;32;33936;-82
2023/04/12 02:45:11;;;;;;;10.23;6.80;;;;;;;6.75;68.28;98584.75;4434521;32;33873;-81
2023/04/12 02:47:39;;;;;;;8.95;6.25;;;;;;;6.66;68.58;98576.84;4415949;32;33913;-82
2023/04/12 02:50:07;;;;;;;9.13;6.30;;;;;;;6.15;70.35;98581.00;4423373;32;33441;-81
2023/04/12 02:52:36;;;;;;;10.65;6.80;;;;;;;6.92;67.32;98573.03;4439710;32;33799;-81
2023/04/12 02:55:05;;;;;;;10.65;6.50;;;;;;;6.74;67.98;98573.59;4435361;32;34643;-81
2023/04/12 02:57:32;;;;;;;9.13;6.35;;;;;;;6.73;68.02;98576.97;4419811;32;34112;-81
2023/04/12 03:00:00;;;;;;;11.00;6.95;;;;;;;6.77;67.70;98571.03;4435672;32;33676;-81
2023/04/12 03:02:29;;;;;;;10.55;6.15;;;;;;;6.71;68.09;98573.53;4437204;32;33442;-82
2023/04/12 03:04:58;;;;;;;8.23;5.90;;;;;;;7.20;66.01;98576.97;4437001;32;34155;-82
2023/04/12 03:07:26;;;;;;;8.48;6.10;;;;;;;7.34;65.49;98573.72;4421228;32;33380;-83
2023/04/12 03:09:54;;;;;;;10.90;5.87;;;;;;;6.83;66.41;98566.00;4420026;32;33003;-81
2023/04/12 03:12:22;;;;;;;10.52;6.57;;;;;;;6.58;67.49;98569.81;4434239;32;34024;-82
2023/04/12 03:14:50;;;;;;;9.40;6.35;;;;;;;6.65;67.18;98567.37;4436574;32;35007;-82
2023/04/12 03:17:18;;;;;;;9.75;6.25;;;;;;;6.69;67.34;98564.88;4433197;32;34375;-83
2023/04/12 03:19:48;;;;;;;9.27;5.68;;;;;;;7.07;65.99;98568.13;4435585;32;32384;-82
2023/04/12 03:22:15;;;;;;;9.45;6.03;;;;;;;6.97;65.59;98560.22;4436457;32;33403;-82
2023/04/12 03:24:45;;;;;;;11.12;6.60;;;;;;;6.96;65.50;98561.06;4435673;32;35242;-82
2023/04/12 03:27:14;;;;;;;8.48;6.00;;;;;;;6.69;66.93;98554.56;4429005;32;33989;-82
2023/04/12 03:29:41;;;;;;;11.12;7.00;;;;;;;6.68;66.53;98552.00;4430103;32;34222;-82
2023/04/12 03:32:09;;;;;;;8.45;5.68;;;;;;;6.49;66.88;98548.19;4437068;32;34160;-82
2023/04/12 03:34:38;;;;;;;10.73;6.40;;;;;;;7.01;65.36;98556.88;4406712;32;34673;-81
2023/04/12 03:37:06;;;;;;;9.40;7.28;;;;;;;6.84;65.22;98535.94;4434745;32;34163;-81
2023/04/12 03:39:34;;;;;;;8.73;6.57;;;;;;;6.83;65.88;98536.81;4436361;32;33461;-82
2023/04/12 03:42:02;;;;;;;10.20;6.47;;;;;;;6.98;64.77;98543.94;4421324;32;34515;-82
2023/04/12 03:44:31;;;;;;;9.07;7.20;;;;;;;7.02;64.56;98541.41;4434600;32;34174;-81
2023/04/12 03:46:59;;;;;;;12.45;7.30;;;;;;;6.77;65.52;98537.53;4435657;32;32816;-82
2023/04/12 03:49:28;;;;;;;8.48;6.53;;;;;;;6.45;66.82;98534.41;4434116;32;33513;-82
2023/04/12 03:51:57;;;;;;;11.15;6.70;;;;;;;6.32;67.16;98541.00;4433998;32;34010;-82
2023/04/12 03:54:25;;;;;;;10.77;6.93;;;;;;;6.12;68.10;98538.88;4435191;32;33695;-82
2023/04/12 03:56:53;;;;;;;10.45;6.80;;;;;;;6.11;68.54;98538.03;4436110;32;34177;-82
2023/04/12 03:59:21;;;;;;;9.07;6.80;;;;;;;6.09;68.04;98534.53;4435215;32;33042;-82
2023/04/12 04:01:49;;;;;;;9.20;6.85;;;;;;;5.93;68.62;98535.94;4433164;32;33699;-82
2023/04/12 04:04:17;;;;;;;9.65;6.15;;;;;;;6.03;68.62;98535.28;4442876;32;34017;-82
2023/04/12 04:06:46;;;;;;;9.27;6.50;;;;;;;6.09;68.73;98537.97;4441047;32;33643;-82
2023/04/12 04:09:14;;;;;;;9.43;7.28;;;;;;;6.08;68.21;98537.94;4420765;32;33209;-82
2023/04/12 04:11:42;;;;;;;13.32;7.68;;;;;;;6.13;68.28;98538.91;4433958;32;32373;-82
2023/04/12 04:14:09;;;;;;;9.82;6.20;;;;;;;6.48;66.58;98528.44;4433915;32;33862;-81
2023/04/12 04:16:37;;;;;;;10.70;6.95;;;;;;;6.43;66.55;98530.03;4415192;32;34092;-81
2023/04/12 04:19:09;;;;;;;12.02;6.97;;;;;;;6.53;66.29;98526.81;4418118;32;33655;-83
2023/04/12 04:21:41;;;;;;;10.60;7.30;;;;;;;6.45;66.62;98533.53;4431868;32;33874;-83
2023/04/12 04:24:10;;;;;;;11.65;7.60;;;;;;;6.49;66.12;98537.91;4421981;32;33888;-83
2023/04/12 04:26:38;;;;;;;9.98;6.57;;;;;;;6.44;66.64;98536.94;4435848;32;33721;-84
2023/04/12 04:29:05;;;;;;;10.45;7.03;;;;;;;6.90;65.51;98535.22;4435644;32;33509;-84
2023/04/12 04:31:36;;;;;;;8.57;6.25;;;;;;;6.98;65.43;98531.03;4436166;32;34398;-83
2023/04/12 04:34:05;;;;;;;11.85;6.70;;;;;;;7.00;64.30;98537.94;4409573;32;34209;-83
2023/04/12 04:36:35;;;;;;;8.82;5.97;;;;;;;7.18;63.31;98534.81;4421579;32;34361;-83
2023/04/12 04:39:04;;;;;;;10.20;5.57;;;;;;;7.44;62.78;98536.94;4435267;32;33380;-84
2023/04/12 04:41:38;;;;;;;9.88;6.32;;;;;;;7.55;61.92;98536.25;4413196;32;33867;-82
2023/04/12 04:44:08;;;;;;;8.70;5.87;;;;;;;7.56;62.21;98537.09;4421083;32;33406;-83
2023/04/12 04:46:36;;;;;;;8.73;6.10;;;;;;;7.63;62.68;98532.91;4431404;32;34197;-83
2023/04/12 04:49:05;;;;;;;8.18;5.87;;;;;;;8.05;61.28;98517.13;4406953;32;33992;-84
2023/04/12 04:51:32;;;;;;;8.13;5.30;;;;;;;8.44;60.28;98521.03;4417632;32;33594;-83
2023/04/12 04:54:01;;;;;;;8.45;5.62;;;;;;;9.05;58.95;98518.16;4437023;32;33679;-83
2023/04/12 04:56:28;;;;;;;8.00;5.12;;;;;;;8.72;58.92;98517.03;4421103;32;33882;-85
2023/04/12 04:58:56;;;;;;;8.15;5.62;;;;;;;8.77;58.78;98520.53;4434452;32;34493;-84
2023/04/12 05:01:26;;;;;;;7.87;5.20;;;;;;;8.45;59.15;98507.28;4435392;32;34601;-84
2023/04/12 05:03:55;;;;;;;8.05;5.10;;;;;;;8.78;58.33;98512.75;4436613;32;35074;-83
2023/04/12 05:06:26;;;;;;;7.90;5.18;;;;;;;8.84;57.91;98513.69;4437278;32;34417;-84
2023/04/12 05:08:54;;;;;;;10.93;5.72;;;;;;;9.17;57.60;98508.81;4423652;32;34155;-84
2023/04/12 05:11:22;;;;;;;8.50;5.00;;;;;;;9.12;57.21;98518.22;4436718;32;33541;-83
2023/04/12 05:13:50;;;;;;;8.18;4.65;;;;;;;9.29;56.97;98520.97;4437376;32;34679;-84
2023/04/12 05:16:17;;;;;;;11.45;5.12;;;;;;;8.99;57.23;98524.16;4437421;32;34731;-84
2023/04/12 05:18:46;;;;;;;8.38;4.68;;;;;;;8.74;58.45;98521.34;4423581;32;33149;-84
2023/04/12 05:21:13;;;;;;;7.32;4.80;;;;;;;9.52;55.94;98517.69;4437331;32;33890;-83
2023/04/12 05:23:44;;;;;;;7.00;4.68;;;;;;;9.03;57.34;98518.16;4444866;32;34607;-83
2023/04/12 05:26:12;;;;;;;7.35;4.68;;;;;;;8.77;57.71;98523.97;4439118;32;34242;-83
2023/04/12 05:28:43;;;;;;;8.07;5.03;;;;;;;9.43;56.57;98531.41;4438666;32;33334;-83
2023/04/12 05:31:11;;;;;;;8.73;5.15;;;;;;;9.31;56.16;98526.12;4437411;32;34622;-83
2023/04/12 05:33:38;;;;;;;7.68;5.03;;;;;;;8.94;57.43;98524.13;4437273;32;34269;-83
2023/04/12 05:36:12;;;;;;;8.23;5.45;;;;;;;8.92;57.75;98520.66;4437134;32;33908;-83
2023/04/12 05:38:40;;;;;;;9.35;4.95;;;;;;;8.20;59.78;98517.31;4423122;32;32736;-83
2023/04/12 05:41:09;;;;;;;10.30;5.62;;;;;;;8.80;57.94;98524.88;4437479;32;34023;-83
2023/04/12 05:43:37;;;;;;;7.93;4.72;;;;;;;8.24;59.77;98513.91;4437217;32;33736;-83
2023/04/12 05:46:06;;;;;;;8.48;4.87;;;;;;;8.59;59.26;98522.91;4437176;32;33563;-80
2023/04/12 05:48:35;;;;;;;7.37;4.25;;;;;;;8.55;58.63;98523.75;4423682;32;33207;-83
2023/04/12 05:51:04;;;;;;;8.25;4.30;;;;;;;8.60;58.91;98511.72;4422543;32;34702;-83
2023/04/12 05:53:31;;;;;;;9.38;5.75;;;;;;;8.13;59.99;98515.50;4436732;32;34719;-83
2023/04/12 05:56:00;;;;;;;7.25;4.20;;;;;;;8.51;59.40;98507.34;4423479;32;34469;-83
2023/04/12 05:58:27;;;;;;;9.45;4.90;;;;;;;8.18;59.96;98500.94;4437307;32;34254;-83
2023/04/12 06:00:55;;;;;;;9.88;5.10;;;;;;;8.31;59.79;98512.25;4437090;32;34383;-83
2023/04/12 06:03:22;;;;;;;8.82;5.15;;;;;;;8.32;59.88;98510.53;4422989;32;33375;-83
2023/04/12 06:05:51;;;;;;;9.15;5.07;;;;;;;8.08;60.37;98518.88;4423026;32;33902;-83
2023/04/12 06:08:19;;;;;;;8.88;4.70;;;;;;;8.10;60.62;98519.75;4437046;32;33133;-83
2023/04/12 06:10:47;;;;;;;7.60;5.25;;;;;;;8.21;60.91;98525.91;4436900;32;33826;-82
2023/04/12 06:13:14;;;;;;;8.10;5.15;;;;;;;8.11;61.08;98513.75;4437012;32;33824;-84
2023/04/12 06:15:42;;;;;;;10.02;5.03;;;;;;;8.21;60.50;98507.84;4436882;32;33818;-84
2023/04/12 06:18:11;;;;;;;10.65;5.87;;;;;;;8.15;61.34;98524.13;4436888;32;33240;-84
2023/04/12 06:20:39;;;;;;;9.55;5.40;;;;;;;8.27;61.46;98521.69;4437005;32;34299;-83
2023/04/12 06:23:07;;;;;;;9.38;5.12;;;;;;;8.54;61.20;98517.72;4436697;32;34122;-84
2023/04/12 06:25:34;;;;;;;8.63;5.37;;;;;;;8.51;61.12;98518.53;4437057;32;33976;-85
2023/04/12 06:28:03;;;;;;;8.40;5.55;;;;;;;8.20;61.15;98522.47;4423003;32;34104;-84
2023/04/12 06:30:31;;;;;;;10.40;4.75;;;;;;;8.43;60.90;98520.16;4437045;32;33496;-85
2023/04/12 06:32:58;;;;;;;8.88;5.10;;;;;;;8.56;60.03;98518.59;4436580;32;35151;-84
2023/04/12 06:35:26;;;;;;;9.52;6.28;;;;;;;8.71;60.07;98517.88;4436804;32;33751;-85
2023/04/12 06:37:53;;;;;;;8.52;5.35;;;;;;;8.35;61.72;98531.25;4436722;32;34296;-84
2023/04/12 06:40:21;;;;;;;9.00;5.30;;;;;;;8.36;61.73;98532.97;4436653;32;33927;-86
2023/04/12 06:42:48;;;;;;;7.18;5.18;;;;;;;8.71;60.88;98544.59;4436364;32;33967;-86
2023/04/12 06:45:20;;;;;;;8.52;5.65;;;;;;;8.74;60.64;98536.84;4436880;32;33679;-85
2023/04/12 06:47:48;;;;;;;8.40;5.57;;;;;;;8.41;62.28;98544.25;4436852;32;33436;-82
2023/04/12 06:50:17;;;;;;;9.05;5.85;;;;;;;8.72;61.71;98538.56;4437198;32;33828;-83
2023/04/12 07:07:59;;;;;;;8.65;5.65;;;;;;;8.89;60.64;98546.47;4461245;27;20705;-86
2023/04/12 07:10:27;;;;;;;8.40;5.18;;;;;;;8.87;60.72;98537.84;4375796;32;33369;-86
2023/04/12 07:12:55;;;;;;;7.97;5.03;;;;;;;9.14;59.71;98542.41;4375902;32;33656;-84
2023/04/12 07:15:23;;;;;;;12.77;5.22;;;;;;;9.47;58.64;98540.91;4375966;32;33969;-85
2023/04/12 07:17:50;;;;;;;13.38;4.90;;;;;;;9.55;58.68;98536.69;4362395;32;34025;-86
2023/04/12 07:20:18;;;;;;;7.53;4.12;;;;;;;9.72;57.84;98537.63;4375975;32;34163;-86
2023/04/12 07:22:46;;;;;;;7.32;4.10;;;;;;;9.95;56.75;98530.00;4375695;32;34060;-83
2023/04/12 07:25:13;;;;;;;9.85;4.65;;;;;;;10.12;55.93;98522.31;4374990;32;34105;-83
2023/04/12 07:27:41;;;;;;;7.53;4.80;;;;;;;10.46;54.62;98512.09;4375627;32;33685;-82
2023/04/12 07:30:09;;;;;;;8.32;4.00;;;;;;;10.48;55.28;98520.72;4375365;32;34349;-86
2023/04/12 07:32:36;;;;;;;6.32;4.15;;;;;;;10.35;54.28;98504.28;4375331;32;34909;-82
2023/04/12 07:35:04;;;;;;;8.77;3.87;;;;;;;10.53;53.32;98503.50;4375683;32;33763;-81
2023/04/12 07:37:32;;;;;;;7.03;3.58;;;;;;;10.75;52.41;98504.38;4375430;32;33928;-84
2023/04/12 07:40:00;;;;;;;6.35;3.78;;;;;;;10.34;53.15;98497.41;4375444;32;33646;-81
2023/04/12 07:42:28;;;;;;;9.48;3.80;;;;;;;10.46;53.20;98506.94;4362173;32;34845;-82
2023/04/12 07:44:55;;;;;;;6.55;4.12;;;;;;;11.01;52.68;98504.41;4375402;32;33948;-82
2023/04/12 07:47:23;;;;;;;9.43;4.25;;;;;;;11.62;50.48;98511.25;4361944;32;34296;-82
2023/04/12 07:49:50;;;;;;;9.32;4.20;;;;;;;11.79;51.05;98508.66;4375605;32;33674;-81
2023/04/12 07:52:17;;;;;;;6.30;3.25;;;;;;;11.27;51.71;98503.53;4375378;32;33856;-81
2023/04/12 07:54:45;;;;;;;7.10;3.40;;;;;;;11.62;51.08;98491.34;4375593;32;35084;-82
2023/04/12 07:57:12;;;;;;;9.48;3.80;;;;;;;12.02;51.42;98485.22;4375504;32;34383;-77
2023/04/12 07:59:40;;;;;;;6.20;3.35;;;;;;;11.96;49.74;98493.88;4375379;32;33399;-82
2023/04/12 08:02:07;;;;;;;6.68;3.12;;;;;;;11.69;49.87;98493.06;4375545;32;33899;-82
2023/04/12 08:04:37;;;;;;;8.27;3.40;;;;;;;11.91;49.62;98493.91;4375321;32;34314;-82
2023/04/12 08:07:04;;;;;;;7.57;3.25;;;;;;;11.96;49.75;98491.28;4375454;32;34691;-82
2023/04/12 08:09:32;;;;;;;7.65;3.25;;;;;;;12.42;48.64;98496.28;4375473;32;34149;-82
2023/04/12 08:12:00;;;;;;;7.40;3.40;;;;;;;12.55;48.80;98492.75;4375551;32;34576;-83
2023/04/12 08:14:27;;;;;;;6.35;3.12;;;;;;;12.46;48.04;98491.91;4375257;32;34232;-84
2023/04/12 08:16:55;;;;;;;6.50;2.67;;;;;;;12.61;48.24;98495.31;4361793;32;34461;-82
2023/04/12 08:19:23;;;;;;;6.68;2.78;;;;;;;12.72;46.59;98484.81;4361859;32;33350;-81
2023/04/12 08:21:50;;;;;;;7.25;2.50;;;;;;;12.57;46.06;98501.38;4375067;32;34095;-81
2023/04/12 08:24:18;;;;;;;7.18;2.50;;;;;;;12.65;46.63;98499.63;4375324;32;34552;-82
2023/04/12 08:26:46;;;;;;;5.62;2.33;;;;;;;12.64;45.87;98494.41;4375413;32;33734;-81
2023/04/12 08:29:13;;;;;;;8.43;2.30;;;;;;;13.03;46.58;98498.50;4374897;32;34094;-81
2023/04/12 08:31:41;;;;;;;6.53;2.10;;;;;;;13.02;44.00;98501.94;4375375;32;34493;-81
2023/04/12 08:34:11;;;;;;;6.65;2.10;;;;;;;12.66;42.79;98497.88;4362038;32;34131;-82
2023/04/12 08:36:38;;;;;;;7.07;2.42;;;;;;;12.80;43.68;98496.03;4373830;32;33003;-81
2023/04/12 08:39:05;;;;;;;6.00;2.30;;;;;;;12.31;44.75;98498.06;4375044;32;33583;-82
2023/04/12 08:41:34;;;;;;;4.82;2.53;;;;;;;13.11;44.00;98493.22;4361440;32;34553;-81
2023/04/12 08:44:04;;;;;;;5.37;2.75;;;;;;;12.37;45.44;98496.31;4361588;32;33786;-82
2023/04/12 08:46:35;;;;;;;5.20;2.62;;;;;;;13.10;44.79;98486.28;4361201;32;34113;-82
2023/04/12 08:49:02;;;;;;;6.12;2.42;;;;;;;12.97;42.64;98490.72;4374817;32;33639;-82
2023/04/12 08:51:31;;;;;;;4.22;2.00;;;;;;;12.87;41.31;98489.91;4375115;32;33926;-82
2023/04/12 08:53:59;;;;;;;4.70;2.25;;;;;;;12.85;42.83;98496.03;4374892;32;34178;-82
2023/04/12 08:56:28;;;;;;;4.95;2.53;;;;;;;13.18;40.97;98486.22;4374763;32;34701;-81
2023/04/12 08:58:56;;;;;;;5.20;2.35;;;;;;;13.02;42.51;98486.34;4374589;32;34278;-82
2023/04/12 09:01:23;;;;;;;4.78;2.10;;;;;;;12.93;41.32;98483.81;4361328;32;33941;-81
2023/04/12 09:03:51;;;;;;;4.82;1.85;;;;;;;13.24;41.14;98494.88;4361126;32;35038;-81
2023/04/12 09:06:19;;;;;;;5.53;2.08;;;;;;;13.30;39.98;98484.41;4374483;32;34206;-82
2023/04/12 09:08:53;;;;;;;5.05;1.90;;;;;;;13.59;38.96;98481.50;4374870;32;33406;-82
2023/04/12 09:11:28;;;;;;;5.07;1.70;;;;;;;13.45;39.26;98483.41;4360890;32;34119;-78
2023/04/12 09:13:56;;;;;;;7.97;2.15;;;;;;;13.12;39.63;98489.75;4374482;32;34316;-81
2023/04/12 09:16:39;;;;;;;4.97;2.15;;;;;;;13.43;40.09;98487.75;4361060;32;33910;-82
2023/04/12 09:19:07;;;;;;;5.57;1.95;;;;;;;13.19;39.22;98488.81;4374605;32;33425;-81
2023/04/12 09:21:35;;;;;;;5.93;1.83;;;;;;;13.53;39.82;98481.59;4361157;32;34626;-81
2023/04/12 09:24:12;;;;;;;7.97;1.73;;;;;;;13.64;39.73;98481.47;4374309;32;34868;-83
2023/04/12 09:26:41;;;;;;;5.97;2.17;;;;;;;13.67;39.14;98465.78;4374223;32;34124;-82
2023/04/12 09:29:25;;;;;;;5.43;1.80;;;;;;;13.78;37.26;98470.91;4374165;32;33509;-83
2023/04/12 09:32:01;;;;;;;5.60;1.67;;;;;;;14.08;36.04;98474.88;4374411;32;34957;-82
2023/04/12 09:34:29;;;;;;;;;;;;;;;14.04;36.88;98475.81;4360940;32;34975;-83
2023/04/12 09:36:57;;;;;;;5.18;1.90;;;;;;;14.27;36.24;98472.91;4374254;32;34951;-82
2023/04/12 09:39:34;;;;;;;3.15;1.58;;;;;;;13.87;36.32;98461.25;4360702;32;34070;-83
2023/04/12 09:42:13;;;;;;;5.37;1.70;;;;;;;13.74;36.89;98456.19;4360673;32;33929;-82
2023/04/12 09:45:00;;;;;;;4.72;1.70;;;;;;;14.08;36.53;98460.09;4374053;32;34950;-82
2023/04/12 09:47:38;;;;;;;4.30;1.80;;;;;;;14.28;35.59;98464.19;4360772;32;34679;-82
2023/04/12 09:50:08;;;;;;;5.03;2.03;;;;;;;14.57;35.08;98449.03;4376388;32;33681;-79
2023/04/12 09:52:38;;;;;;;5.47;1.80;;;;;;;14.32;34.66;98471.13;4362967;32;34116;-81
2023/04/12 09:55:08;;;;;;;4.65;1.60;;;;;;;14.32;34.54;98450.25;4376613;32;34085;-82
2023/04/12 09:57:41;;;;;;;4.25;1.67;;;;;;;14.13;34.92;98447.03;4376012;32;33923;-82
2023/04/12 10:00:12;;;;;;;4.55;1.50;;;;;;;14.50;33.55;98441.31;4362822;32;33858;-82
2023/04/12 10:02:41;;;;;;;4.22;1.80;;;;;;;14.63;34.80;98442.88;4376137;32;35106;-83
2023/04/12 10:05:12;;;;;;;4.03;1.70;;;;;;;14.51;34.04;98448.28;4376262;32;34618;-81
2023/04/12 10:07:42;;;;;;;3.87;1.37;;;;;;;14.27;34.92;98449.44;4362692;32;33816;-81
2023/04/12 10:10:15;;;;;;;6.00;1.70;;;;;;;14.92;34.28;98445.00;4375931;32;34371;-83
2023/04/12 10:12:47;;;;;;;5.47;1.40;;;;;;;14.37;35.17;98456.25;4376181;32;34747;-81
2023/04/12 10:15:20;;;;;;;5.65;1.55;;;;;;;14.15;33.65;98449.59;4362860;32;34807;-81
2023/04/12 10:17:53;;;;;;;2.95;1.37;;;;;;;14.59;32.71;98434.22;4376453;32;34744;-82
2023/04/12 10:20:21;;;;;;;3.22;1.30;;;;;;;14.42;32.79;98440.53;4362594;32;33539;-82
2023/04/12 10:22:53;;;;;;;3.92;1.67;;;;;;;14.48;33.42;98428.28;4376294;32;34738;-82
2023/04/12 10:25:22;;;;;;;5.10;1.70;;;;;;;14.81;33.41;98437.38;4376110;32;34021;-83
2023/04/12 10:27:50;;;;;;;3.22;1.42;;;;;;;14.90;34.46;98436.34;4350283;32;34877;-79
2023/04/12 10:30:26;;;;;;;5.95;2.10;;;;;;;14.96;33.32;98435.38;4362467;32;34586;-82
2023/04/12 10:33:03;;;;;;;3.10;1.30;;;;;;;14.80;33.63;98434.78;4362528;32;34084;-82
2023/04/12 10:36:01;;;;;;;4.95;2.03;;;;;;;14.95;33.48;98452.78;4375854;32;34382;-81
2023/04/12 10:38:36;;;;;;;6.75;1.58;;;;;;;14.85;33.64;98443.41;4362666;32;34454;-83
2023/04/12 10:41:10;;;;;;;3.92;1.42;;;;;;;15.14;32.22;98427.25;4350592;32;32499;-84
2023/04/12 10:43:42;;;;;;;3.42;1.30;;;;;;;15.19;31.19;98419.31;4376289;32;34600;-84
2023/04/12 10:46:38;;;;;;;3.80;1.37;;;;;;;15.49;32.71;98410.94;4376027;32;33961;-82
2023/04/12 10:49:08;;;;;;;5.68;1.45;;;;;;;16.04;30.48;98409.84;4362340;32;34103;-82
2023/04/12 10:51:36;;;;;;;4.68;1.83;;;;;;;16.10;29.19;98405.38;4375860;32;33346;-86
2023/04/12 10:54:06;;;;;;;5.57;1.67;;;;;;;15.77;31.04;98407.81;4375702;32;33981;-82
2023/04/12 10:56:39;;;;;;;5.20;1.35;;;;;;;15.89;32.98;98409.31;4362350;32;33738;-82
2023/04/12 10:59:12;;;;;;;3.22;1.37;;;;;;;15.77;31.83;98407.81;4375876;32;33739;-82
2023/04/12 11:01:41;;;;;;;4.82;1.85;;;;;;;15.66;31.07;98396.72;4375246;32;33537;-82
2023/04/12 11:04:17;;;;;;;2.90;1.00;;;;;;;15.66;30.43;98391.50;4349959;32;34872;-83
2023/04/12 11:06:49;;;;;;;5.18;1.87;;;;;;;15.74;29.36;98390.44;4375934;32;34979;-83
2023/04/12 11:09:45;;;;;;;7.20;1.30;;;;;;;15.87;30.39;98395.41;4375635;32;33980;-82
2023/04/12 11:12:14;;;;;;;6.03;1.75;;;;;;;15.61;31.71;98394.16;4375565;32;33491;-82
2023/04/12 11:14:48;;;;;;;6.72;1.80;;;;;;;16.09;33.40;98393.19;4375942;32;33647;-83
2023/04/12 11:17:15;;;;;;;7.18;2.10;;;;;;;16.01;32.36;98393.37;4362179;32;33782;-82
2023/04/12 11:19:51;;;;;;;6.78;1.90;;;;;;;15.99;31.43;98396.03;4375706;32;33944;-83
2023/04/12 11:22:21;;;;;;;6.90;1.85;;;;;;;15.40;32.31;98379.75;4375833;32;33667;-80
2023/04/12 11:24:51;;;;;;;4.03;1.58;;;;;;;15.15;32.48;98386.31;4375321;32;34040;-82
2023/04/12 11:27:20;;;;;;;5.07;1.65;;;;;;;15.14;33.56;98384.63;4362105;32;34955;-82
2023/04/12 11:29:50;;;;;;;4.32;1.50;;;;;;;15.77;32.13;98377.31;4375708;32;33955;-82
2023/04/12 11:32:20;;;;;;;6.80;1.50;;;;;;;15.42;33.01;98382.34;4375760;32;34219;-83
2023/04/12 11:34:48;;;;;;;4.05;2.10;;;;;;;15.66;32.33;98397.56;4362190;32;33517;-82
2023/04/12 11:37:17;;;;;;;3.45;1.62;;;;;;;15.49;33.07;98379.59;4375346;32;34032;-81
2023/04/12 11:39:46;;;;;;;6.70;1.73;;;;;;;15.98;30.75;98394.28;4362029;32;34156;-82
2023/04/12 11:42:18;;;;;;;6.20;2.05;;;;;;;16.00;30.84;98384.66;4362043;32;33377;-82
2023/04/12 11:44:47;;;;;;;4.70;1.50;;;;;;;15.73;31.54;98378.28;4361977;32;33971;-83
2023/04/12 11:47:27;;;;;;;4.75;1.65;;;;;;;16.38;30.85;98385.56;4363479;32;35022;-82
2023/04/12 11:49:56;;;;;;;5.78;1.90;;;;;;;16.59;30.16;98385.94;4361950;32;34051;-82
2023/04/12 11:52:31;;;;;;;8.88;2.00;;;;;;;15.89;30.51;98373.56;4361525;32;33523;-82
2023/04/12 11:55:05;;;;;;;7.20;1.92;;;;;;;15.23;32.00;98374.88;4362310;32;33880;-82
2023/04/12 11:57:33;;;;;;;11.27;1.67;;;;;;;15.58;32.77;98378.56;4362162;32;34182;-82
2023/04/12 12:00:05;;;;;;;7.82;2.00;;;;;;;15.82;32.05;98372.84;4375508;32;34562;-81
2023/04/12 12:02:38;;;;;;;4.50;1.55;;;;;;;15.51;31.80;98374.34;4361700;32;32077;-83
2023/04/12 12:05:19;;;;;;;7.18;1.87;;;;;;;15.53;31.35;98360.38;4361570;32;34241;-82